createdAt,value
2023-01-30T00:35:31.173Z,41.15
2023-01-30T00:36:31.140Z,41.15
2023-01-30T00:37:31.189Z,41.13
2023-01-30T00:39:31.268Z,41.12
2023-01-30T01:05:32.423Z,41.16
2023-01-30T01:06:32.550Z,41.14
2023-01-30T01:07:32.515Z,41.15
2023-01-30T01:08:32.572Z,41.18
2023-01-30T01:09:32.599Z,41.17
2023-01-30T01:10:32.663Z,41.17
2023-01-30T01:11:32.694Z,41.13
2023-01-30T01:12:32.751Z,41.13
2023-01-30T01:13:32.789Z,41.13
2023-01-30T01:14:32.916Z,41.16
2023-01-30T01:15:32.882Z,41.16
2023-01-30T01:16:32.961Z,41.11
2023-01-30T01:17:32.971Z,41.13
2023-01-30T01:18:32.999Z,41.15
2023-01-30T01:19:33.043Z,41.13
2023-01-30T01:20:33.104Z,41.16
2023-01-30T01:21:33.150Z,41.15
2023-01-30T01:22:33.274Z,41.13
2023-01-30T01:23:33.260Z,41.14
2023-01-30T01:24:33.276Z,41.16
2023-01-30T01:26:33.379Z,41.12
2023-01-30T01:27:33.413Z,41.15
2023-01-30T01:28:33.462Z,41.16
2023-01-30T01:29:33.571Z,41.21
2023-01-30T01:30:33.584Z,41.22
2023-01-30T01:31:33.669Z,41.27
2023-01-30T01:32:33.673Z,41.28
2023-01-30T01:33:33.733Z,41.28
2023-01-30T01:34:33.795Z,41.30
2023-01-30T01:35:33.839Z,41.28
2023-01-30T01:36:52.671Z,41.33
2023-01-30T01:38:33.882Z,41.29
2023-01-30T01:39:33.881Z,41.23
2023-01-30T01:40:33.895Z,41.23
2023-01-30T01:41:33.898Z,41.20
2023-01-30T01:42:33.896Z,41.19
2023-01-30T01:43:33.898Z,41.18
2023-01-30T01:44:33.908Z,41.18
2023-01-30T01:45:33.942Z,41.18
2023-01-30T01:46:33.906Z,41.17
2023-01-30T01:47:33.907Z,41.18
2023-01-30T01:48:33.937Z,41.13
2023-01-30T01:49:33.935Z,41.16
2023-01-30T01:50:33.987Z,41.15
2023-01-30T01:51:34.035Z,41.13
2023-01-30T01:52:34.087Z,41.14
2023-01-30T01:53:34.141Z,41.13
2023-01-30T01:54:34.192Z,41.16
2023-01-30T01:55:34.239Z,41.16
2023-01-30T01:56:34.353Z,41.15
2023-01-30T01:58:34.398Z,41.16
2023-01-30T01:59:34.439Z,41.15
2023-01-30T02:00:34.518Z,41.15
2023-01-30T02:01:34.558Z,41.15
2023-01-30T02:02:34.662Z,41.13
2023-01-30T02:03:34.652Z,41.16
2023-01-30T02:04:34.710Z,41.16
2023-01-30T02:05:34.735Z,41.15
2023-01-30T02:06:34.793Z,41.16
2023-01-30T02:07:34.842Z,41.14
2023-01-30T02:08:34.906Z,41.14
2023-01-30T02:09:34.943Z,41.14
2023-01-30T02:10:35.019Z,41.14
2023-01-30T02:11:35.059Z,41.17
2023-01-30T02:12:35.116Z,41.19
2023-01-30T02:13:35.169Z,41.16
2023-01-30T02:14:35.306Z,41.15
2023-01-30T02:15:35.275Z,41.16
2023-01-30T02:16:35.338Z,41.14
2023-01-30T02:17:35.439Z,41.14
2023-01-30T02:18:35.473Z,41.13
2023-01-30T02:19:35.517Z,41.15
2023-01-30T02:20:35.566Z,41.13
2023-01-30T02:21:35.612Z,41.14
2023-01-30T02:22:36.609Z,41.14
2023-01-30T02:23:35.703Z,41.14
2023-01-30T02:24:35.765Z,41.13
2023-01-30T02:25:35.832Z,41.10
2023-01-30T02:26:35.950Z,41.14
2023-01-30T02:27:35.927Z,41.14
2023-01-30T02:28:35.983Z,41.12
2023-01-30T02:29:36.050Z,41.08
2023-01-30T02:30:36.134Z,41.10
2023-01-30T02:31:36.214Z,41.11
2023-01-30T02:32:36.169Z,41.13
2023-01-30T02:33:36.213Z,41.12
2023-01-30T02:34:36.267Z,41.14
2023-01-30T02:35:36.301Z,41.17
2023-01-30T02:37:36.419Z,41.19
2023-01-30T02:38:36.448Z,41.20
2023-01-30T04:04:41.074Z,41.22
2023-01-30T04:05:41.122Z,41.26
2023-01-30T04:06:41.170Z,41.20
2023-01-30T04:07:41.274Z,41.21
2023-01-30T04:08:41.322Z,41.21
2023-01-30T04:09:41.641Z,41.24
2023-01-30T04:10:41.415Z,41.24
2023-01-30T04:11:41.491Z,41.24
2023-01-30T04:12:41.541Z,41.27
2023-01-30T04:13:42.145Z,41.26
2023-01-30T04:14:41.658Z,41.22
2023-01-30T04:15:41.719Z,41.22
2023-01-30T04:16:41.773Z,41.19
2023-01-30T04:17:41.831Z,41.20
2023-01-30T04:18:41.910Z,41.25
2023-01-30T04:19:41.975Z,41.23
2023-01-30T04:20:42.003Z,41.24
2023-01-30T04:21:42.720Z,41.22
2023-01-30T04:22:42.117Z,41.22
2023-01-30T04:23:42.266Z,41.23
2023-01-30T04:24:42.277Z,41.26
2023-01-30T04:25:42.320Z,41.27
2023-01-30T04:26:42.444Z,41.29
2023-01-30T04:27:42.461Z,41.25
2023-01-30T04:28:42.501Z,41.26
2023-01-30T04:29:42.577Z,41.29
2023-01-30T04:30:42.672Z,41.26
2023-01-30T04:31:42.781Z,41.28
2023-01-30T04:32:42.738Z,41.25
2023-01-30T04:33:42.813Z,41.29
2023-01-30T04:34:42.860Z,41.31
2023-01-30T04:35:42.924Z,41.31
2023-01-30T04:36:42.996Z,41.32
2023-01-30T04:37:43.051Z,41.27
2023-01-30T04:38:43.110Z,41.30
2023-01-30T04:39:43.173Z,41.28
2023-01-30T04:40:43.233Z,41.26
2023-01-30T04:41:43.296Z,41.27
2023-01-30T04:42:43.353Z,41.25
2023-01-30T04:43:43.466Z,41.25
2023-01-30T04:44:43.485Z,41.26
2023-01-30T04:45:43.538Z,41.25
2023-01-30T04:46:43.688Z,41.24
2023-01-30T04:47:43.683Z,41.26
2023-01-30T04:48:43.795Z,41.23
2023-01-30T04:49:43.763Z,41.28
2023-01-30T04:50:43.823Z,41.31
2023-01-30T04:51:43.873Z,41.29
2023-01-30T04:52:43.930Z,41.31
2023-01-30T04:53:44.009Z,41.31
2023-01-30T04:54:44.056Z,41.31
2023-01-30T04:55:44.119Z,41.33
2023-01-30T04:57:45.140Z,41.32
2023-01-30T04:58:44.303Z,41.29
2023-01-30T04:59:44.352Z,41.30
2023-01-30T05:00:44.542Z,41.30
2023-01-30T05:01:44.492Z,41.26
2023-01-30T05:02:44.537Z,41.27
2023-01-30T05:03:44.599Z,41.30
2023-01-30T05:04:44.823Z,41.31
2023-01-30T05:05:44.709Z,41.30
2023-01-30T05:06:44.840Z,41.30
2023-01-30T05:07:44.828Z,41.29
2023-01-30T05:08:46.866Z,41.33
2023-01-30T05:09:44.936Z,41.32
2023-01-30T05:10:44.993Z,41.35
2023-01-30T05:11:45.066Z,41.37
2023-01-30T05:12:45.133Z,41.36
2023-01-30T05:13:45.175Z,41.35
2023-01-30T05:14:45.262Z,41.36
2023-01-30T05:15:46.253Z,41.36
2023-01-30T05:16:45.256Z,41.35
2023-01-30T05:17:46.302Z,41.35
2023-01-30T05:18:45.287Z,41.32
2023-01-30T05:19:45.271Z,41.31
2023-01-30T05:20:45.319Z,41.31
2023-01-30T05:21:45.293Z,41.32
2023-01-30T05:22:45.306Z,41.32
2023-01-30T05:23:45.332Z,41.34
2023-01-30T05:24:45.323Z,41.31
2023-01-30T05:25:45.343Z,41.29
2023-01-30T05:26:45.446Z,41.26
2023-01-30T05:27:45.421Z,41.22
2023-01-30T05:28:45.473Z,41.25
2023-01-30T05:29:45.546Z,41.25
2023-01-30T05:30:47.323Z,41.25
2023-01-30T05:31:45.697Z,41.25
2023-01-30T05:32:45.744Z,41.26
2023-01-30T05:33:45.821Z,41.28
2023-01-30T05:34:45.898Z,41.29
2023-01-30T05:35:45.940Z,41.28
2023-01-30T05:36:46.653Z,41.31
2023-01-30T05:37:46.084Z,41.32
2023-01-30T05:38:46.153Z,41.34
2023-01-30T05:39:46.263Z,41.32
2023-01-30T05:40:47.162Z,41.29
2023-01-30T05:41:46.337Z,41.31
2023-01-30T05:42:47.154Z,41.31
2023-01-30T05:43:46.524Z,41.33
2023-01-30T05:44:46.517Z,41.29
2023-01-30T05:45:46.563Z,41.31
2023-01-30T05:46:46.704Z,41.31
2023-01-30T05:47:46.714Z,41.31
2023-01-30T05:48:46.877Z,41.33
2023-01-30T05:49:46.852Z,41.30
2023-01-30T05:50:46.928Z,41.30
2023-01-30T05:51:46.990Z,41.32
2023-01-30T05:52:47.060Z,41.34
2023-01-30T06:35:51.176Z,42.17
2023-01-30T07:03:51.240Z,47.90
2023-01-30T07:15:51.177Z,50.11
2023-01-30T07:30:51.217Z,50.80
2023-01-30T07:54:51.081Z,50.92
2023-01-30T07:55:51.088Z,50.92
2023-01-30T07:56:51.119Z,50.86
2023-01-30T07:57:51.151Z,50.86
2023-01-30T07:58:51.178Z,50.88
2023-01-30T07:59:51.223Z,50.92
2023-01-30T08:00:51.275Z,50.95
2023-01-30T08:01:51.296Z,50.91
2023-01-30T08:02:51.313Z,50.91
2023-01-30T08:03:51.342Z,50.95
2023-01-30T08:04:51.448Z,50.98
2023-01-30T08:05:51.422Z,50.93
2023-01-30T08:06:51.476Z,50.91
2023-01-30T08:07:51.499Z,50.93
2023-01-30T08:08:51.543Z,50.94
2023-01-30T08:12:51.673Z,50.76
2023-01-30T08:13:51.713Z,50.79
2023-01-30T08:14:51.821Z,50.75
2023-01-30T08:15:51.789Z,50.74
2023-01-30T08:16:51.906Z,50.64
2023-01-30T08:17:51.879Z,50.61
2023-01-30T08:18:51.859Z,50.62
2023-01-30T08:19:51.958Z,50.59
2023-01-30T08:20:51.932Z,50.14
2023-01-30T08:21:51.964Z,49.82
2023-01-30T08:22:52.698Z,49.66
2023-01-30T08:23:52.013Z,49.54
2023-01-30T08:24:52.101Z,49.10
2023-01-30T08:25:52.063Z,49.08
2023-01-30T08:26:52.090Z,49.12
2023-01-30T08:27:52.112Z,49.18
2023-01-30T08:28:52.695Z,49.27
2023-01-30T08:29:52.216Z,49.31
2023-01-30T08:30:52.296Z,49.42
2023-01-30T08:31:52.253Z,49.50
2023-01-30T08:32:52.291Z,49.59
2023-01-30T08:33:52.327Z,49.65
2023-01-30T08:34:53.196Z,49.67
2023-01-30T08:35:52.408Z,49.72
2023-01-30T08:36:52.442Z,49.75
2023-01-30T08:37:52.480Z,49.72
2023-01-30T08:38:52.527Z,49.70
2023-01-30T08:39:52.565Z,49.66
2023-01-30T08:40:52.596Z,49.67
2023-01-30T08:41:52.644Z,49.70
2023-01-30T08:42:52.755Z,49.73
2023-01-30T08:43:52.698Z,49.72
2023-01-30T08:44:52.729Z,49.70
2023-01-30T08:45:53.702Z,49.72
2023-01-30T08:46:52.808Z,49.71
2023-01-30T08:47:52.898Z,49.70
2023-01-30T08:48:52.867Z,49.72
2023-01-30T08:49:53.025Z,49.73
2023-01-30T08:50:52.966Z,49.68
2023-01-30T08:51:53.009Z,49.63
2023-01-30T08:52:53.044Z,49.61
2023-01-30T08:53:53.086Z,49.50
2023-01-30T08:54:53.133Z,49.49
2023-01-30T08:55:53.160Z,49.47
2023-01-30T08:56:53.204Z,49.46
2023-01-30T08:57:53.248Z,49.47
2023-01-30T08:58:53.285Z,49.43
2023-01-30T08:59:53.390Z,49.41
2023-01-30T09:00:53.469Z,49.37
2023-01-30T09:01:53.710Z,49.33
2023-01-30T09:02:53.460Z,49.30
2023-01-30T09:03:53.504Z,49.29
2023-01-30T09:04:53.533Z,49.27
2023-01-30T09:05:53.582Z,49.25
2023-01-30T09:06:53.608Z,49.20
2023-01-30T09:07:53.636Z,49.17
2023-01-30T09:08:53.663Z,49.10
2023-01-30T09:09:53.705Z,49.12
2023-01-30T09:10:54.702Z,49.11
2023-01-30T09:11:53.778Z,49.12
2023-01-30T09:12:53.810Z,48.92
2023-01-30T09:13:53.835Z,48.64
2023-01-30T09:14:54.709Z,48.67
2023-01-30T09:15:54.012Z,48.67
2023-01-30T09:16:54.001Z,48.61
2023-01-30T09:17:54.222Z,48.57
2023-01-30T09:18:54.079Z,48.59
2023-01-30T09:19:54.062Z,48.52
2023-01-30T09:20:54.092Z,48.24
2023-01-30T09:21:54.725Z,48.24
2023-01-30T09:22:54.207Z,48.26
2023-01-30T09:23:54.262Z,48.05
2023-01-30T09:24:54.203Z,48.12
2023-01-30T09:25:54.232Z,48.26
2023-01-30T09:26:54.251Z,48.35
2023-01-30T09:27:54.293Z,48.38
2023-01-30T09:28:54.351Z,48.42
2023-01-30T09:29:54.367Z,48.50
2023-01-30T09:30:54.422Z,48.52
2023-01-30T09:31:54.418Z,48.57
2023-01-30T09:32:54.467Z,48.56
2023-01-30T09:33:54.500Z,48.60
2023-01-30T09:34:54.711Z,48.65
2023-01-30T09:35:55.221Z,48.65
2023-01-30T09:37:54.739Z,48.70
2023-01-30T09:38:54.780Z,48.71
2023-01-30T09:39:54.826Z,48.72
2023-01-30T09:41:54.961Z,48.71
2023-01-30T09:42:54.971Z,48.73
2023-01-30T10:25:56.705Z,48.10
2023-01-30T10:26:56.701Z,48.36
2023-01-30T10:27:56.744Z,48.58
2023-01-30T10:29:06.672Z,48.69
2023-01-30T10:29:57.657Z,48.96
2023-01-30T10:30:56.772Z,49.09
2023-01-30T10:31:56.641Z,49.02
2023-01-30T10:32:56.633Z,49.26
2023-01-30T10:33:56.696Z,49.42
2023-01-30T10:34:56.615Z,49.23
2023-01-30T10:35:56.588Z,49.49
2023-01-30T10:36:56.596Z,49.66
2023-01-30T10:38:56.548Z,49.58
2023-01-30T10:39:56.549Z,49.78
2023-01-30T10:40:56.516Z,49.84
2023-01-30T10:41:56.502Z,49.93
2023-01-30T10:42:56.496Z,50.13
2023-01-30T10:43:56.469Z,50.46
2023-01-30T10:44:56.517Z,50.36
2023-01-30T10:45:56.435Z,50.85
2023-01-30T10:46:56.496Z,50.94
2023-01-30T10:47:56.437Z,50.93
2023-01-30T10:48:56.386Z,51.13
2023-01-30T10:49:56.353Z,51.24
2023-01-30T10:50:56.321Z,51.33
2023-01-30T10:51:56.325Z,51.77
2023-01-30T10:52:56.335Z,51.56
2023-01-30T10:53:56.381Z,51.57
2023-01-30T10:54:56.420Z,51.84
2023-01-30T10:55:56.458Z,51.76
2023-01-30T10:56:57.218Z,52.07
2023-01-30T10:57:56.518Z,52.05
2023-01-30T10:58:56.605Z,52.20
2023-01-30T10:59:56.588Z,52.40
2023-01-30T11:00:56.629Z,52.27
2023-01-30T11:01:56.665Z,52.58
2023-01-30T11:02:56.723Z,52.84
2023-01-30T11:03:56.753Z,52.88
2023-01-30T11:04:56.793Z,53.01
2023-01-30T11:05:56.786Z,53.07
2023-01-30T11:06:56.799Z,53.09
2023-01-30T11:07:56.816Z,53.09
2023-01-30T11:08:56.831Z,53.37
2023-01-30T11:09:56.842Z,53.39
2023-01-30T11:10:56.859Z,53.44
2023-01-30T11:11:56.893Z,53.78
2023-01-30T11:12:56.901Z,52.85
2023-01-30T11:13:56.909Z,52.46
2023-01-30T11:14:56.906Z,52.55
2023-01-30T11:15:56.934Z,52.70
2023-01-30T11:16:56.986Z,52.62
2023-01-30T11:18:01.390Z,52.57
2023-01-30T11:19:57.832Z,52.89
2023-01-30T11:20:56.784Z,52.90
2023-01-30T11:21:56.760Z,52.89
2023-01-30T11:22:56.713Z,52.94
2023-01-30T11:23:56.678Z,53.03
2023-01-30T11:24:56.650Z,53.12
2023-01-30T11:26:09.373Z,53.13
2023-01-30T11:26:57.720Z,53.14
2023-01-30T11:27:56.563Z,53.16
2023-01-30T11:28:56.638Z,53.15
2023-01-30T11:29:56.481Z,53.17
2023-01-30T11:30:56.500Z,53.12
2023-01-30T11:31:56.513Z,53.16
2023-01-30T11:32:56.431Z,53.09
2023-01-30T11:33:56.353Z,53.11
2023-01-30T11:34:56.325Z,53.11
2023-01-30T11:35:56.293Z,53.06
2023-01-30T11:36:56.259Z,53.06
2023-01-30T11:37:56.219Z,53.04
2023-01-30T11:38:56.186Z,53.02
2023-01-30T11:39:56.163Z,53.00
2023-01-30T11:40:56.167Z,53.01
2023-01-30T11:41:56.181Z,52.97
2023-01-30T11:42:56.200Z,52.97
2023-01-30T11:43:56.216Z,52.94
2023-01-30T11:45:06.459Z,52.94
2023-01-30T11:45:57.230Z,52.89
2023-01-30T11:46:56.150Z,52.93
2023-01-30T11:47:58.888Z,52.88
2023-01-30T11:49:04.180Z,52.88
2023-01-30T11:50:04.705Z,52.92
2023-01-30T11:50:57.012Z,52.85
2023-01-30T11:51:55.981Z,52.89
2023-01-30T11:52:55.945Z,52.88
2023-01-30T11:53:55.923Z,52.89
2023-01-30T11:54:55.905Z,52.92
2023-01-30T11:56:03.793Z,52.92
2023-01-30T11:56:56.840Z,52.95
2023-01-30T11:57:55.805Z,52.93
2023-01-30T11:58:55.778Z,52.95
2023-01-30T12:30:50.552Z,52.21
2023-01-30T12:32:50.652Z,52.30
2023-01-30T12:50:51.477Z,51.93
2023-01-30T12:51:51.488Z,52.02
2023-01-30T12:52:51.531Z,52.08
2023-01-30T12:53:51.587Z,52.05
2023-01-30T12:54:51.632Z,51.95
2023-01-30T12:55:51.657Z,52.07
2023-01-30T12:56:51.663Z,52.01
2023-01-30T12:57:51.670Z,52.02
2023-01-30T12:58:51.667Z,52.06
2023-01-30T12:59:51.700Z,51.98
2023-01-30T13:00:51.693Z,51.94
2023-01-30T13:01:51.729Z,51.91
2023-01-30T13:02:51.835Z,51.99
2023-01-30T13:03:51.702Z,51.81
2023-01-30T13:05:02.229Z,51.87
2023-01-30T13:05:52.691Z,51.74
2023-01-30T13:06:51.690Z,51.73
2023-01-30T13:07:51.681Z,51.86
2023-01-30T13:08:51.669Z,51.83
2023-01-30T13:09:51.674Z,51.92
2023-01-30T13:10:51.673Z,51.97
2023-01-30T13:11:51.664Z,51.95
2023-01-30T13:12:51.664Z,51.91
2023-01-30T13:13:51.684Z,51.87
2023-01-30T13:14:51.677Z,51.86
2023-01-30T13:15:53.184Z,51.97
2023-01-30T13:16:51.645Z,52.05
2023-01-30T13:17:51.657Z,51.95
2023-01-30T13:18:51.639Z,51.98
2023-01-30T13:19:51.651Z,51.95
2023-01-30T13:20:51.637Z,51.85
2023-01-30T13:21:51.630Z,51.82
2023-01-30T13:22:51.617Z,51.77
2023-01-30T13:23:51.629Z,51.86
2023-01-30T13:24:51.633Z,51.85
2023-01-30T13:25:51.624Z,51.85
2023-01-30T13:26:51.661Z,51.77
2023-01-30T13:27:51.633Z,51.52
2023-01-30T13:28:51.635Z,51.78
2023-01-30T13:29:51.639Z,51.79
2023-01-30T13:30:51.716Z,51.81
2023-01-30T13:31:51.840Z,51.63
2023-01-30T13:32:51.699Z,51.71
2023-01-30T13:33:51.719Z,51.69
2023-01-30T13:34:51.740Z,51.54
2023-01-30T13:35:51.755Z,51.39
2023-01-30T13:36:51.795Z,51.71
2023-01-30T13:37:51.833Z,51.58
2023-01-30T13:38:51.857Z,51.60
2023-01-30T13:39:52.540Z,51.53
2023-01-30T13:40:51.930Z,51.67
2023-01-30T13:41:51.970Z,51.72
2023-01-30T13:42:52.622Z,51.63
2023-01-30T13:43:52.032Z,51.52
2023-01-30T13:44:52.082Z,51.53
2023-01-30T13:45:52.126Z,51.59
2023-01-30T13:46:52.208Z,51.65
2023-01-30T13:47:52.201Z,51.57
2023-01-30T13:48:52.246Z,51.62
2023-01-30T13:49:52.293Z,51.58
2023-01-30T13:50:52.337Z,51.58
2023-01-30T13:51:52.380Z,51.50
2023-01-30T13:52:52.435Z,51.51
2023-01-30T13:53:52.480Z,51.37
2023-01-30T13:54:52.552Z,51.40
2023-01-30T13:55:52.552Z,51.41
2023-01-30T13:56:52.626Z,51.56
2023-01-30T13:57:52.655Z,51.51
2023-01-30T13:58:52.705Z,51.38
2023-01-30T13:59:52.754Z,51.38
2023-01-30T14:00:52.895Z,51.36
2023-01-30T14:01:52.859Z,51.21
2023-01-30T14:02:52.898Z,51.29
2023-01-30T14:03:52.954Z,51.32
2023-01-30T14:04:53.768Z,51.30
2023-01-30T14:05:53.022Z,51.25
2023-01-30T14:06:53.082Z,51.26
2023-01-30T14:07:53.127Z,51.18
2023-01-30T14:08:53.163Z,51.08
2023-01-30T14:09:53.210Z,51.14
2023-01-30T14:10:54.210Z,51.17
2023-01-30T14:11:53.299Z,51.18
2023-01-30T14:12:53.346Z,51.15
2023-01-30T14:13:53.387Z,51.14
2023-01-30T14:14:53.447Z,50.96
2023-01-30T14:15:53.566Z,51.01
2023-01-30T14:16:53.523Z,50.87
2023-01-30T14:17:53.742Z,50.91
2023-01-30T14:18:53.601Z,50.98
2023-01-30T14:19:53.625Z,50.88
2023-01-30T14:20:53.667Z,50.95
2023-01-30T14:21:53.719Z,50.85
2023-01-30T14:22:53.769Z,50.80
2023-01-30T14:23:53.756Z,50.82
2023-01-30T14:24:53.770Z,50.73
2023-01-30T14:25:53.773Z,50.73
2023-01-30T14:26:53.871Z,50.75
2023-01-30T14:27:53.772Z,50.57
2023-01-30T14:28:53.761Z,50.71
2023-01-30T14:29:53.769Z,50.62
2023-01-30T14:30:53.778Z,50.71
2023-01-30T14:31:54.951Z,50.48
2023-01-30T14:32:53.796Z,50.56
2023-01-30T14:33:53.786Z,50.65
2023-01-30T14:34:53.893Z,50.58
2023-01-30T14:35:53.788Z,50.48
2023-01-30T14:36:53.800Z,50.62
2023-01-30T14:37:53.804Z,50.57
2023-01-30T14:38:53.793Z,50.51
2023-01-30T14:39:53.829Z,50.34
2023-01-30T14:40:53.869Z,50.37
2023-01-30T14:41:53.917Z,50.49
2023-01-30T14:42:53.947Z,50.47
2023-01-30T14:43:54.458Z,50.48
2023-01-30T14:44:54.037Z,50.52
2023-01-30T14:45:54.040Z,50.49
2023-01-30T14:46:56.949Z,50.35
2023-01-30T14:47:54.120Z,50.47
2023-01-30T14:48:54.053Z,50.44
2023-01-30T14:49:54.034Z,50.41
2023-01-30T14:50:54.059Z,50.32
2023-01-30T14:51:54.035Z,50.42
2023-01-30T14:52:54.040Z,50.36
2023-01-30T14:53:54.032Z,50.31
2023-01-30T14:54:54.031Z,50.34
2023-01-30T14:55:54.032Z,50.34
2023-01-30T14:56:54.040Z,50.34
2023-01-30T14:57:54.024Z,50.31
2023-01-30T14:58:54.476Z,50.27
2023-01-30T15:00:12.169Z,50.32
2023-01-30T15:00:55.037Z,50.31
2023-01-30T15:01:54.085Z,50.26
2023-01-30T15:02:54.010Z,50.24
2023-01-30T15:03:54.070Z,50.20
2023-01-30T15:04:54.061Z,50.14
2023-01-30T15:05:54.032Z,50.20
2023-01-30T15:06:54.033Z,50.18
2023-01-30T15:07:54.038Z,50.14
2023-01-30T15:08:54.055Z,50.11
2023-01-30T15:09:54.049Z,50.04
2023-01-30T15:10:54.051Z,50.10
2023-01-30T15:11:54.024Z,50.11
2023-01-30T15:12:54.003Z,50.11
2023-01-30T15:13:54.003Z,49.99
2023-01-30T15:14:55.004Z,50.00
2023-01-30T15:15:54.019Z,50.00
2023-01-30T15:16:53.985Z,49.95
2023-01-30T15:18:07.101Z,49.99
2023-01-30T15:18:54.971Z,49.99
2023-01-30T15:19:53.964Z,49.94
2023-01-30T15:20:53.972Z,49.97
2023-01-30T15:21:53.953Z,49.95
2023-01-30T15:22:53.976Z,49.97
2023-01-30T15:23:53.993Z,49.88
2023-01-30T15:24:53.964Z,49.84
2023-01-30T15:25:53.963Z,49.83
2023-01-30T15:26:54.051Z,49.86
2023-01-30T15:27:53.963Z,49.87
2023-01-30T15:28:53.965Z,49.84
2023-01-30T15:29:53.969Z,49.85
2023-01-30T15:30:54.010Z,49.86
2023-01-30T15:31:54.038Z,49.86
2023-01-30T15:32:53.954Z,49.83
2023-01-30T15:33:53.956Z,49.83
2023-01-30T15:34:53.948Z,49.77
2023-01-30T15:35:53.951Z,49.74
2023-01-30T15:36:53.944Z,49.73
2023-01-30T15:37:53.937Z,49.76
2023-01-30T15:39:53.937Z,49.78
2023-01-30T15:40:53.929Z,49.79
2023-01-30T15:41:53.905Z,49.78
2023-01-30T15:42:53.996Z,49.79
2023-01-30T15:43:53.890Z,49.79
2023-01-30T15:44:53.891Z,49.80
2023-01-30T15:45:53.916Z,49.80
2023-01-30T15:46:53.872Z,49.79
2023-01-30T15:47:53.878Z,49.70
2023-01-30T16:21:01.682Z,49.17
2023-01-30T17:38:54.642Z,52.62
2023-01-30T17:40:54.656Z,52.62
2023-01-30T17:52:54.508Z,52.45
2023-01-30T17:54:54.493Z,52.41
2023-01-30T17:55:54.475Z,52.38
2023-01-30T17:56:54.466Z,52.34
2023-01-30T17:57:54.453Z,52.33
2023-01-30T17:58:54.440Z,52.30
2023-01-30T17:59:54.423Z,52.31
2023-01-30T18:00:54.411Z,52.26
2023-01-30T18:01:54.424Z,52.28
2023-01-30T18:02:54.424Z,52.31
2023-01-30T18:03:54.387Z,52.26
2023-01-30T18:04:54.381Z,52.25
2023-01-30T18:05:54.360Z,52.21
2023-01-30T18:06:54.394Z,52.22
2023-01-30T18:07:54.352Z,52.16
2023-01-30T18:08:54.346Z,52.11
2023-01-30T18:09:54.338Z,52.05
2023-01-30T18:10:54.325Z,52.06
2023-01-30T18:11:54.326Z,52.04
2023-01-30T18:12:54.331Z,52.00
2023-01-30T18:13:54.348Z,51.99
2023-01-30T18:14:54.374Z,51.97
2023-01-30T18:15:54.377Z,51.98
2023-01-30T18:16:54.388Z,51.98
2023-01-30T18:17:54.394Z,51.97
2023-01-30T18:18:54.404Z,51.92
2023-01-30T18:19:54.426Z,51.90
2023-01-30T18:20:54.434Z,51.90
2023-01-30T18:21:54.455Z,51.94
2023-01-30T18:22:54.461Z,51.91
2023-01-30T18:23:54.477Z,51.84
2023-01-30T18:24:54.488Z,51.79
2023-01-30T18:25:54.496Z,51.79
2023-01-30T18:26:54.517Z,51.76
2023-01-30T18:27:54.529Z,51.73
2023-01-30T18:54:54.841Z,51.31
2023-01-30T18:55:54.843Z,51.27
2023-01-30T18:56:54.856Z,51.23
2023-01-30T18:57:54.883Z,51.21
2023-01-30T18:58:54.869Z,51.22
2023-01-30T18:59:54.893Z,51.21
2023-01-30T19:00:54.892Z,51.23
2023-01-30T19:01:54.903Z,51.17
2023-01-30T19:02:54.980Z,51.17
2023-01-30T19:03:54.902Z,51.12
2023-01-30T19:04:54.923Z,51.10
2023-01-30T19:05:54.915Z,51.13
2023-01-30T19:06:54.928Z,51.13
2023-01-30T19:07:54.931Z,51.07
2023-01-30T19:08:54.929Z,51.08
2023-01-30T19:09:54.955Z,51.05
2023-01-30T19:10:54.943Z,51.05
2023-01-30T19:11:54.969Z,51.00
2023-01-30T19:12:54.976Z,50.98
2023-01-30T19:13:54.974Z,50.97
2023-01-30T19:14:54.991Z,50.91
2023-01-30T19:34:55.086Z,50.64
2023-01-30T19:35:55.067Z,50.65
2023-01-30T19:36:55.081Z,50.62
2023-01-30T19:37:55.104Z,50.58
2023-01-30T19:38:55.121Z,50.59
2023-01-30T19:39:55.115Z,50.55
2023-01-30T19:40:55.112Z,50.55
2023-01-30T19:41:55.110Z,50.54
2023-01-30T19:42:59.576Z,50.49
2023-01-30T19:44:55.114Z,50.50
2023-01-30T19:45:55.093Z,50.49
2023-01-30T19:46:55.081Z,50.46
2023-01-30T19:47:55.072Z,50.46
2023-01-30T19:48:55.070Z,50.43
2023-01-30T19:49:55.073Z,50.40
2023-01-30T19:50:55.039Z,50.44
2023-01-30T19:51:55.026Z,50.46
2023-01-30T19:52:55.013Z,50.44
2023-01-30T19:53:55.009Z,50.42
2023-01-30T19:54:55.011Z,50.41
2023-01-30T19:55:54.995Z,50.38
2023-01-30T19:56:54.988Z,50.35
2023-01-30T19:58:55.120Z,50.35
2023-01-30T19:59:54.949Z,50.34
2023-01-30T20:00:54.925Z,50.33
2023-01-30T20:01:54.994Z,50.34
2023-01-30T20:02:54.901Z,50.31
2023-01-30T20:03:54.888Z,50.28
2023-01-30T20:04:54.870Z,50.27
2023-01-30T20:05:55.308Z,50.28
2023-01-30T20:06:54.847Z,50.26
2023-01-30T20:07:54.829Z,50.24
2023-01-30T20:08:54.822Z,50.22
2023-01-30T20:09:54.810Z,50.17
2023-01-30T20:10:54.780Z,50.17
2023-01-30T20:12:54.764Z,50.13
2023-01-30T20:13:54.743Z,50.11
2023-01-30T20:14:54.731Z,50.14
2023-01-30T20:15:54.863Z,50.12
2023-01-30T20:16:54.713Z,50.08
2023-01-30T20:17:54.702Z,50.13
2023-01-30T20:18:54.696Z,50.06
2023-01-30T20:19:54.670Z,50.08
2023-01-30T20:20:54.675Z,50.07
2023-01-30T20:21:54.668Z,50.03
2023-01-30T20:22:54.643Z,49.99
2023-01-30T20:23:54.651Z,49.94
2023-01-30T20:24:54.616Z,49.93
2023-01-30T20:25:54.602Z,49.92
2023-01-30T20:26:54.650Z,49.90
2023-01-30T20:27:54.578Z,49.92
2023-01-30T20:28:54.585Z,49.91
2023-01-30T20:29:54.564Z,49.92
2023-01-30T20:30:54.596Z,49.91
2023-01-30T20:31:54.615Z,49.89
2023-01-30T20:32:54.581Z,49.87
2023-01-30T20:33:54.574Z,49.85
2023-01-30T20:34:54.575Z,49.86
2023-01-30T20:35:54.567Z,49.77
2023-01-30T20:36:54.603Z,49.82
2023-01-30T20:37:54.580Z,49.77
2023-01-30T20:38:54.579Z,49.82
2023-01-30T20:39:54.599Z,49.80
2023-01-30T20:40:54.601Z,49.79
2023-01-30T20:41:54.605Z,49.77
2023-01-30T20:42:54.615Z,49.74
2023-01-30T20:43:54.632Z,49.74
2023-01-30T20:44:54.634Z,49.71
2023-01-30T20:45:54.659Z,49.64
2023-01-30T20:46:54.699Z,49.63
2023-01-30T20:47:54.654Z,49.59
2023-01-30T20:48:54.998Z,49.57
2023-01-30T20:49:54.647Z,49.59
2023-01-30T20:50:54.641Z,49.58
2023-01-30T20:51:54.660Z,49.54
2023-01-30T20:52:54.654Z,49.58
2023-01-30T20:53:54.668Z,49.52
2023-01-30T20:54:54.654Z,49.60
2023-01-30T20:55:54.662Z,49.56
2023-01-30T20:56:54.699Z,49.52
2023-01-30T20:57:54.683Z,49.50
2023-01-30T20:58:54.678Z,49.46
2023-01-30T20:59:54.670Z,49.44
2023-01-30T21:00:54.697Z,49.45
2023-01-30T21:01:54.691Z,49.41
2023-01-30T21:02:54.698Z,49.40
2023-01-30T21:03:54.739Z,49.41
2023-01-30T21:04:54.730Z,49.39
2023-01-30T21:05:54.731Z,49.42
2023-01-30T21:06:54.760Z,49.36
2023-01-30T21:07:54.735Z,49.36
2023-01-30T21:08:54.748Z,49.33
2023-01-30T21:09:54.757Z,49.33
2023-01-30T21:10:54.757Z,49.29
2023-01-30T21:11:54.766Z,49.27
2023-01-30T21:12:54.754Z,49.26
2023-01-30T21:13:54.743Z,49.24
2023-01-30T21:14:54.722Z,49.21
2023-01-30T21:15:54.699Z,49.21
2023-01-30T21:16:54.731Z,49.19
2023-01-30T21:17:54.680Z,49.21
2023-01-30T21:18:54.650Z,49.19
2023-01-30T21:20:54.635Z,49.17
2023-01-30T21:21:54.617Z,49.15
2023-01-30T21:38:54.437Z,49.01
2023-01-30T21:39:54.424Z,48.97
2023-01-30T21:40:54.422Z,48.95
2023-01-30T21:41:54.426Z,48.97
2023-01-30T21:42:54.408Z,48.93
2023-01-30T21:43:54.400Z,48.93
2023-01-30T21:44:54.395Z,48.96
2023-01-30T21:45:54.435Z,48.93
2023-01-30T21:46:54.395Z,48.93
2023-01-30T21:47:54.424Z,48.94
2023-01-30T21:48:54.384Z,48.90
2023-01-30T21:49:54.401Z,48.92
2023-01-30T21:50:54.371Z,48.92
2023-01-30T21:51:54.356Z,48.87
2023-01-30T21:52:54.337Z,48.85
2023-01-30T21:53:54.349Z,48.82
2023-01-30T21:54:54.334Z,48.82
2023-01-30T21:55:54.326Z,48.81
2023-01-30T21:56:54.329Z,48.79
2023-01-30T21:57:54.341Z,48.79
2023-01-30T21:58:54.325Z,48.78
2023-01-30T21:59:54.292Z,48.77
2023-01-30T22:00:55.242Z,48.77
2023-01-30T22:01:54.297Z,48.77
2023-01-30T22:02:54.281Z,48.75
2023-01-30T22:03:54.970Z,48.71
2023-01-30T22:04:54.801Z,48.73
2023-01-30T22:05:54.633Z,48.73
2023-01-30T22:06:54.481Z,48.71